sensor_id;sensor_type;location;lat;lon;timestamp;P1;durP1;ratioP1;P2;durP2;ratioP2
41687;SDS011;27371;42.686;23.362;2024-02-21T00:00:22;7.10;;;4.75;;
41687;SDS011;27371;42.686;23.362;2024-02-21T00:02:47;5.93;;;4.80;;
41687;SDS011;27371;42.686;23.362;2024-02-21T00:05:13;5.60;;;4.68;;
41687;SDS011;27371;42.686;23.362;2024-02-21T00:07:38;6.90;;;5.40;;
41687;SDS011;27371;42.686;23.362;2024-02-21T00:10:04;5.93;;;4.55;;
41687;SDS011;27371;42.686;23.362;2024-02-21T00:12:30;6.15;;;4.90;;
41687;SDS011;27371;42.686;23.362;2024-02-21T00:14:56;6.88;;;4.70;;
41687;SDS011;27371;42.686;23.362;2024-02-21T00:17:21;6.30;;;4.75;;
41687;SDS011;27371;42.686;23.362;2024-02-21T00:19:46;5.60;;;4.15;;
41687;SDS011;27371;42.686;23.362;2024-02-21T00:22:12;5.88;;;4.07;;
41687;SDS011;27371;42.686;23.362;2024-02-21T00:24:38;6.63;;;4.57;;
41687;SDS011;27371;42.686;23.362;2024-02-21T00:27:03;6.07;;;4.47;;
41687;SDS011;27371;42.686;23.362;2024-02-21T00:29:29;6.35;;;4.50;;
41687;SDS011;27371;42.686;23.362;2024-02-21T00:31:54;6.80;;;4.60;;
41687;SDS011;27371;42.686;23.362;2024-02-21T00:34:20;6.53;;;5.03;;
41687;SDS011;27371;42.686;23.362;2024-02-21T00:36:45;5.03;;;4.13;;
41687;SDS011;27371;42.686;23.362;2024-02-21T00:39:11;5.63;;;3.92;;
41687;SDS011;27371;42.686;23.362;2024-02-21T00:41:37;6.05;;;4.18;;
41687;SDS011;27371;42.686;23.362;2024-02-21T00:44:02;5.40;;;4.07;;
41687;SDS011;27371;42.686;23.362;2024-02-21T00:46:30;5.28;;;4.10;;
41687;SDS011;27371;42.686;23.362;2024-02-21T00:48:56;4.40;;;3.55;;
41687;SDS011;27371;42.686;23.362;2024-02-21T00:51:21;4.68;;;3.65;;
41687;SDS011;27371;42.686;23.362;2024-02-21T00:53:47;5.57;;;3.95;;
41687;SDS011;27371;42.686;23.362;2024-02-21T00:56:12;5.47;;;3.95;;
41687;SDS011;27371;42.686;23.362;2024-02-21T00:58:38;4.78;;;3.80;;
41687;SDS011;27371;42.686;23.362;2024-02-21T01:03:39;7.45;;;4.25;;
41687;SDS011;27371;42.686;23.362;2024-02-21T01:06:05;5.03;;;3.78;;
41687;SDS011;27371;42.686;23.362;2024-02-21T01:08:31;5.82;;;3.45;;
41687;SDS011;27371;42.686;23.362;2024-02-21T01:10:57;4.38;;;3.42;;
41687;SDS011;27371;42.686;23.362;2024-02-21T01:13:22;4.50;;;3.45;;
41687;SDS011;27371;42.686;23.362;2024-02-21T01:15:48;5.10;;;3.70;;
41687;SDS011;27371;42.686;23.362;2024-02-21T01:18:13;5.47;;;4.05;;
41687;SDS011;27371;42.686;23.362;2024-02-21T01:20:39;5.95;;;4.60;;
41687;SDS011;27371;42.686;23.362;2024-02-21T01:23:05;5.22;;;4.03;;
41687;SDS011;27371;42.686;23.362;2024-02-21T01:25:30;5.28;;;4.25;;
41687;SDS011;27371;42.686;23.362;2024-02-21T01:27:56;5.03;;;4.13;;
41687;SDS011;27371;42.686;23.362;2024-02-21T01:30:21;5.72;;;4.28;;
41687;SDS011;27371;42.686;23.362;2024-02-21T01:32:47;6.00;;;4.53;;
41687;SDS011;27371;42.686;23.362;2024-02-21T01:35:12;5.53;;;4.13;;
41687;SDS011;27371;42.686;23.362;2024-02-21T01:37:38;6.65;;;4.80;;
41687;SDS011;27371;42.686;23.362;2024-02-21T01:40:04;9.07;;;5.75;;
41687;SDS011;27371;42.686;23.362;2024-02-21T01:42:30;10.50;;;6.65;;
41687;SDS011;27371;42.686;23.362;2024-02-21T01:44:55;11.13;;;7.53;;
41687;SDS011;27371;42.686;23.362;2024-02-21T01:47:21;13.05;;;8.35;;
41687;SDS011;27371;42.686;23.362;2024-02-21T01:49:47;14.27;;;8.65;;
41687;SDS011;27371;42.686;23.362;2024-02-21T01:52:13;15.77;;;9.38;;
41687;SDS011;27371;42.686;23.362;2024-02-21T01:54:41;14.00;;;9.00;;
41687;SDS011;27371;42.686;23.362;2024-02-21T01:57:07;13.32;;;7.28;;
41687;SDS011;27371;42.686;23.362;2024-02-21T01:59:33;9.65;;;6.38;;
41687;SDS011;27371;42.686;23.362;2024-02-21T02:02:00;9.75;;;6.13;;
41687;SDS011;27371;42.686;23.362;2024-02-21T02:04:27;8.40;;;5.47;;
41687;SDS011;27371;42.686;23.362;2024-02-21T02:06:54;6.82;;;4.65;;
41687;SDS011;27371;42.686;23.362;2024-02-21T02:09:20;6.18;;;4.90;;
41687;SDS011;27371;42.686;23.362;2024-02-21T02:11:46;7.38;;;5.22;;
41687;SDS011;27371;42.686;23.362;2024-02-21T02:14:12;6.43;;;4.63;;
41687;SDS011;27371;42.686;23.362;2024-02-21T02:16:37;7.93;;;4.93;;
41687;SDS011;27371;42.686;23.362;2024-02-21T02:19:03;6.55;;;4.72;;
41687;SDS011;27371;42.686;23.362;2024-02-21T02:21:29;7.00;;;5.22;;
41687;SDS011;27371;42.686;23.362;2024-02-21T02:23:58;6.18;;;5.07;;
41687;SDS011;27371;42.686;23.362;2024-02-21T02:26:24;8.85;;;5.63;;
41687;SDS011;27371;42.686;23.362;2024-02-21T02:28:50;6.80;;;5.80;;
41687;SDS011;27371;42.686;23.362;2024-02-21T02:31:15;7.75;;;6.20;;
41687;SDS011;27371;42.686;23.362;2024-02-21T02:33:42;8.63;;;6.43;;
41687;SDS011;27371;42.686;23.362;2024-02-21T02:36:09;8.30;;;6.10;;
41687;SDS011;27371;42.686;23.362;2024-02-21T02:38:35;6.63;;;5.90;;
41687;SDS011;27371;42.686;23.362;2024-02-21T02:41:00;7.70;;;6.28;;
41687;SDS011;27371;42.686;23.362;2024-02-21T02:43:26;7.57;;;6.18;;
41687;SDS011;27371;42.686;23.362;2024-02-21T02:45:51;9.48;;;6.82;;
41687;SDS011;27371;42.686;23.362;2024-02-21T02:48:17;8.02;;;6.65;;
41687;SDS011;27371;42.686;23.362;2024-02-21T02:50:44;9.23;;;7.18;;
41687;SDS011;27371;42.686;23.362;2024-02-21T02:53:10;8.23;;;6.45;;
41687;SDS011;27371;42.686;23.362;2024-02-21T02:55:36;9.73;;;7.38;;
41687;SDS011;27371;42.686;23.362;2024-02-21T02:58:02;8.45;;;6.45;;
41687;SDS011;27371;42.686;23.362;2024-02-21T03:00:27;10.10;;;6.75;;
41687;SDS011;27371;42.686;23.362;2024-02-21T03:02:53;8.95;;;6.50;;
41687;SDS011;27371;42.686;23.362;2024-02-21T03:05:20;8.88;;;6.85;;
41687;SDS011;27371;42.686;23.362;2024-02-21T03:07:46;8.52;;;6.80;;
41687;SDS011;27371;42.686;23.362;2024-02-21T03:10:14;9.25;;;7.53;;
41687;SDS011;27371;42.686;23.362;2024-02-21T03:12:41;9.50;;;7.50;;
41687;SDS011;27371;42.686;23.362;2024-02-21T03:15:07;9.10;;;7.88;;
41687;SDS011;27371;42.686;23.362;2024-02-21T03:17:33;10.32;;;8.13;;
41687;SDS011;27371;42.686;23.362;2024-02-21T03:19:59;9.00;;;7.18;;
41687;SDS011;27371;42.686;23.362;2024-02-21T03:22:25;10.32;;;7.55;;
41687;SDS011;27371;42.686;23.362;2024-02-21T03:24:51;10.05;;;7.65;;
41687;SDS011;27371;42.686;23.362;2024-02-21T03:27:16;10.52;;;8.35;;
41687;SDS011;27371;42.686;23.362;2024-02-21T03:29:42;10.57;;;7.85;;
41687;SDS011;27371;42.686;23.362;2024-02-21T03:32:08;10.68;;;8.35;;
41687;SDS011;27371;42.686;23.362;2024-02-21T03:34:34;11.43;;;9.52;;
41687;SDS011;27371;42.686;23.362;2024-02-21T03:37:00;11.20;;;8.82;;
41687;SDS011;27371;42.686;23.362;2024-02-21T03:39:26;11.05;;;9.18;;
41687;SDS011;27371;42.686;23.362;2024-02-21T03:41:52;11.13;;;8.98;;
41687;SDS011;27371;42.686;23.362;2024-02-21T03:44:17;14.57;;;9.23;;
41687;SDS011;27371;42.686;23.362;2024-02-21T03:46:43;10.75;;;9.23;;
41687;SDS011;27371;42.686;23.362;2024-02-21T03:49:09;11.38;;;9.15;;
41687;SDS011;27371;42.686;23.362;2024-02-21T03:51:34;11.38;;;9.43;;
41687;SDS011;27371;42.686;23.362;2024-02-21T03:54:00;11.18;;;9.38;;
41687;SDS011;27371;42.686;23.362;2024-02-21T03:56:25;12.35;;;9.82;;
41687;SDS011;27371;42.686;23.362;2024-02-21T03:58:51;11.38;;;9.32;;
41687;SDS011;27371;42.686;23.362;2024-02-21T04:01:17;13.05;;;9.85;;
41687;SDS011;27371;42.686;23.362;2024-02-21T04:03:45;12.77;;;9.60;;
41687;SDS011;27371;42.686;23.362;2024-02-21T04:06:10;11.07;;;9.65;;
41687;SDS011;27371;42.686;23.362;2024-02-21T04:08:37;13.95;;;9.93;;
41687;SDS011;27371;42.686;23.362;2024-02-21T04:11:02;12.27;;;9.63;;
41687;SDS011;27371;42.686;23.362;2024-02-21T04:13:28;12.38;;;9.82;;
41687;SDS011;27371;42.686;23.362;2024-02-21T04:15:53;10.43;;;8.75;;
41687;SDS011;27371;42.686;23.362;2024-02-21T04:18:19;10.55;;;8.75;;
41687;SDS011;27371;42.686;23.362;2024-02-21T04:20:44;11.57;;;9.23;;
41687;SDS011;27371;42.686;23.362;2024-02-21T04:23:10;12.05;;;9.35;;
41687;SDS011;27371;42.686;23.362;2024-02-21T04:25:36;21.83;;;10.63;;
41687;SDS011;27371;42.686;23.362;2024-02-21T04:28:01;13.00;;;9.60;;
41687;SDS011;27371;42.686;23.362;2024-02-21T04:30:28;11.98;;;9.77;;
41687;SDS011;27371;42.686;23.362;2024-02-21T04:32:53;11.98;;;9.48;;
41687;SDS011;27371;42.686;23.362;2024-02-21T04:35:19;12.93;;;9.38;;
41687;SDS011;27371;42.686;23.362;2024-02-21T04:37:45;12.15;;;9.75;;
41687;SDS011;27371;42.686;23.362;2024-02-21T04:40:10;11.57;;;9.55;;
41687;SDS011;27371;42.686;23.362;2024-02-21T04:42:36;11.85;;;9.50;;
41687;SDS011;27371;42.686;23.362;2024-02-21T04:45:02;12.60;;;10.15;;
41687;SDS011;27371;42.686;23.362;2024-02-21T04:47:27;11.52;;;9.55;;
41687;SDS011;27371;42.686;23.362;2024-02-21T04:49:53;12.75;;;10.40;;
41687;SDS011;27371;42.686;23.362;2024-02-21T04:52:19;11.90;;;9.35;;
41687;SDS011;27371;42.686;23.362;2024-02-21T04:54:44;12.52;;;9.68;;
41687;SDS011;27371;42.686;23.362;2024-02-21T04:57:10;12.88;;;9.32;;
41687;SDS011;27371;42.686;23.362;2024-02-21T04:59:36;11.88;;;10.02;;
41687;SDS011;27371;42.686;23.362;2024-02-21T05:02:02;14.18;;;10.57;;
41687;SDS011;27371;42.686;23.362;2024-02-21T05:04:28;11.93;;;9.90;;
41687;SDS011;27371;42.686;23.362;2024-02-21T05:06:53;11.40;;;9.32;;
41687;SDS011;27371;42.686;23.362;2024-02-21T05:09:19;12.48;;;9.65;;
41687;SDS011;27371;42.686;23.362;2024-02-21T05:11:45;13.05;;;10.93;;
41687;SDS011;27371;42.686;23.362;2024-02-21T05:14:11;12.80;;;10.75;;
41687;SDS011;27371;42.686;23.362;2024-02-21T05:16:36;12.70;;;10.27;;
41687;SDS011;27371;42.686;23.362;2024-02-21T05:19:04;15.00;;;11.32;;
41687;SDS011;27371;42.686;23.362;2024-02-21T05:21:30;14.07;;;10.90;;
41687;SDS011;27371;42.686;23.362;2024-02-21T05:23:56;18.10;;;11.27;;
41687;SDS011;27371;42.686;23.362;2024-02-21T05:26:25;14.43;;;10.77;;
41687;SDS011;27371;42.686;23.362;2024-02-21T05:28:51;14.50;;;10.65;;
41687;SDS011;27371;42.686;23.362;2024-02-21T05:31:20;12.82;;;10.48;;
41687;SDS011;27371;42.686;23.362;2024-02-21T05:33:46;12.68;;;9.98;;
41687;SDS011;27371;42.686;23.362;2024-02-21T05:36:12;13.77;;;10.65;;
41687;SDS011;27371;42.686;23.362;2024-02-21T05:38:38;14.40;;;11.15;;
41687;SDS011;27371;42.686;23.362;2024-02-21T05:41:05;16.92;;;11.52;;
41687;SDS011;27371;42.686;23.362;2024-02-21T05:43:30;15.02;;;11.60;;
41687;SDS011;27371;42.686;23.362;2024-02-21T05:45:56;17.98;;;11.40;;
41687;SDS011;27371;42.686;23.362;2024-02-21T05:48:22;16.88;;;11.02;;
41687;SDS011;27371;42.686;23.362;2024-02-21T05:50:51;15.48;;;11.23;;
41687;SDS011;27371;42.686;23.362;2024-02-21T05:53:16;14.43;;;11.65;;
41687;SDS011;27371;42.686;23.362;2024-02-21T05:55:42;14.63;;;11.73;;
41687;SDS011;27371;42.686;23.362;2024-02-21T05:58:08;18.80;;;12.40;;
41687;SDS011;27371;42.686;23.362;2024-02-21T06:00:38;16.02;;;12.43;;
41687;SDS011;27371;42.686;23.362;2024-02-21T06:03:04;15.45;;;11.38;;
41687;SDS011;27371;42.686;23.362;2024-02-21T06:05:30;16.55;;;12.00;;
41687;SDS011;27371;42.686;23.362;2024-02-21T06:07:56;16.77;;;12.00;;
41687;SDS011;27371;42.686;23.362;2024-02-21T06:10:22;14.95;;;11.73;;
41687;SDS011;27371;42.686;23.362;2024-02-21T06:12:48;14.70;;;11.43;;
41687;SDS011;27371;42.686;23.362;2024-02-21T06:15:13;16.67;;;12.43;;
41687;SDS011;27371;42.686;23.362;2024-02-21T06:17:39;16.17;;;11.32;;
41687;SDS011;27371;42.686;23.362;2024-02-21T06:20:04;16.95;;;11.93;;
41687;SDS011;27371;42.686;23.362;2024-02-21T06:22:30;16.33;;;11.73;;
41687;SDS011;27371;42.686;23.362;2024-02-21T06:24:56;15.48;;;11.88;;
41687;SDS011;27371;42.686;23.362;2024-02-21T06:27:22;14.57;;;12.25;;
41687;SDS011;27371;42.686;23.362;2024-02-21T06:29:47;14.52;;;11.38;;
41687;SDS011;27371;42.686;23.362;2024-02-21T06:32:13;13.70;;;11.70;;
41687;SDS011;27371;42.686;23.362;2024-02-21T06:34:38;16.13;;;12.25;;
41687;SDS011;27371;42.686;23.362;2024-02-21T06:37:04;16.40;;;11.90;;
41687;SDS011;27371;42.686;23.362;2024-02-21T06:39:29;15.27;;;11.82;;
41687;SDS011;27371;42.686;23.362;2024-02-21T06:41:55;16.60;;;12.10;;
41687;SDS011;27371;42.686;23.362;2024-02-21T06:44:21;16.88;;;12.77;;
41687;SDS011;27371;42.686;23.362;2024-02-21T06:46:47;17.85;;;13.05;;
41687;SDS011;27371;42.686;23.362;2024-02-21T06:49:12;17.67;;;13.25;;
41687;SDS011;27371;42.686;23.362;2024-02-21T06:51:44;15.50;;;12.65;;
41687;SDS011;27371;42.686;23.362;2024-02-21T06:54:10;23.05;;;14.00;;
41687;SDS011;27371;42.686;23.362;2024-02-21T06:56:36;19.55;;;13.95;;
41687;SDS011;27371;42.686;23.362;2024-02-21T06:59:02;17.83;;;12.27;;
41687;SDS011;27371;42.686;23.362;2024-02-21T07:01:32;16.60;;;12.88;;
41687;SDS011;27371;42.686;23.362;2024-02-21T07:03:57;16.85;;;12.40;;
41687;SDS011;27371;42.686;23.362;2024-02-21T07:06:23;17.98;;;13.35;;
41687;SDS011;27371;42.686;23.362;2024-02-21T07:08:49;16.38;;;13.75;;
41687;SDS011;27371;42.686;23.362;2024-02-21T07:11:15;21.70;;;14.40;;
41687;SDS011;27371;42.686;23.362;2024-02-21T07:13:40;20.20;;;14.73;;
41687;SDS011;27371;42.686;23.362;2024-02-21T07:16:06;18.95;;;15.35;;
41687;SDS011;27371;42.686;23.362;2024-02-21T07:18:32;19.98;;;15.45;;
41687;SDS011;27371;42.686;23.362;2024-02-21T07:20:57;23.17;;;15.25;;
41687;SDS011;27371;42.686;23.362;2024-02-21T07:23:23;23.52;;;16.42;;
41687;SDS011;27371;42.686;23.362;2024-02-21T07:25:49;24.05;;;15.32;;
41687;SDS011;27371;42.686;23.362;2024-02-21T07:28:14;21.85;;;14.95;;
41687;SDS011;27371;42.686;23.362;2024-02-21T07:30:41;18.30;;;14.38;;
41687;SDS011;27371;42.686;23.362;2024-02-21T07:33:07;17.63;;;13.52;;
41687;SDS011;27371;42.686;23.362;2024-02-21T07:35:32;20.25;;;14.40;;
41687;SDS011;27371;42.686;23.362;2024-02-21T07:37:58;21.27;;;15.13;;
41687;SDS011;27371;42.686;23.362;2024-02-21T07:40:23;19.50;;;14.38;;
41687;SDS011;27371;42.686;23.362;2024-02-21T07:42:49;20.55;;;13.55;;
41687;SDS011;27371;42.686;23.362;2024-02-21T07:45:15;18.55;;;13.68;;
41687;SDS011;27371;42.686;23.362;2024-02-21T07:47:40;17.38;;;13.40;;
41687;SDS011;27371;42.686;23.362;2024-02-21T07:50:06;17.55;;;12.75;;
41687;SDS011;27371;42.686;23.362;2024-02-21T07:52:32;14.20;;;11.70;;
41687;SDS011;27371;42.686;23.362;2024-02-21T07:54:58;16.88;;;13.13;;
41687;SDS011;27371;42.686;23.362;2024-02-21T07:57:23;19.15;;;13.10;;
41687;SDS011;27371;42.686;23.362;2024-02-21T07:59:49;17.95;;;13.15;;
41687;SDS011;27371;42.686;23.362;2024-02-21T08:02:15;15.73;;;12.40;;
41687;SDS011;27371;42.686;23.362;2024-02-21T08:04:41;16.38;;;12.75;;
41687;SDS011;27371;42.686;23.362;2024-02-21T08:07:06;16.20;;;12.65;;
41687;SDS011;27371;42.686;23.362;2024-02-21T08:09:32;19.13;;;12.57;;
41687;SDS011;27371;42.686;23.362;2024-02-21T08:11:58;16.45;;;11.80;;
41687;SDS011;27371;42.686;23.362;2024-02-21T08:14:24;17.23;;;12.25;;
41687;SDS011;27371;42.686;23.362;2024-02-21T08:16:52;17.35;;;12.38;;
41687;SDS011;27371;42.686;23.362;2024-02-21T08:19:20;16.15;;;12.65;;
41687;SDS011;27371;42.686;23.362;2024-02-21T08:21:46;14.93;;;12.07;;
41687;SDS011;27371;42.686;23.362;2024-02-21T08:24:14;16.02;;;12.55;;
41687;SDS011;27371;42.686;23.362;2024-02-21T08:26:40;15.60;;;12.63;;
41687;SDS011;27371;42.686;23.362;2024-02-21T08:29:06;17.10;;;12.48;;
41687;SDS011;27371;42.686;23.362;2024-02-21T08:31:32;16.65;;;12.27;;
41687;SDS011;27371;42.686;23.362;2024-02-21T08:33:59;16.38;;;12.32;;
41687;SDS011;27371;42.686;23.362;2024-02-21T08:36:32;15.00;;;11.52;;
41687;SDS011;27371;42.686;23.362;2024-02-21T08:38:59;16.05;;;11.63;;
41687;SDS011;27371;42.686;23.362;2024-02-21T08:41:26;14.45;;;11.65;;
41687;SDS011;27371;42.686;23.362;2024-02-21T08:43:52;13.43;;;11.13;;
41687;SDS011;27371;42.686;23.362;2024-02-21T08:46:22;13.80;;;11.75;;
41687;SDS011;27371;42.686;23.362;2024-02-21T08:48:49;17.27;;;12.73;;
41687;SDS011;27371;42.686;23.362;2024-02-21T08:51:16;14.52;;;11.43;;
41687;SDS011;27371;42.686;23.362;2024-02-21T08:53:42;12.65;;;10.70;;
41687;SDS011;27371;42.686;23.362;2024-02-21T08:56:09;16.52;;;11.30;;
41687;SDS011;27371;42.686;23.362;2024-02-21T08:58:35;14.38;;;11.13;;
41687;SDS011;27371;42.686;23.362;2024-02-21T09:01:02;12.63;;;10.85;;
41687;SDS011;27371;42.686;23.362;2024-02-21T09:03:30;13.52;;;10.38;;
41687;SDS011;27371;42.686;23.362;2024-02-21T09:05:57;12.75;;;10.25;;
41687;SDS011;27371;42.686;23.362;2024-02-21T09:08:23;11.25;;;10.02;;
41687;SDS011;27371;42.686;23.362;2024-02-21T09:10:49;13.77;;;10.43;;
41687;SDS011;27371;42.686;23.362;2024-02-21T09:13:15;14.75;;;10.20;;
41687;SDS011;27371;42.686;23.362;2024-02-21T09:15:40;11.90;;;9.82;;
41687;SDS011;27371;42.686;23.362;2024-02-21T09:18:07;11.57;;;10.30;;
41687;SDS011;27371;42.686;23.362;2024-02-21T09:20:32;13.77;;;10.25;;
41687;SDS011;27371;42.686;23.362;2024-02-21T09:22:58;11.93;;;10.07;;
41687;SDS011;27371;42.686;23.362;2024-02-21T09:25:24;11.45;;;10.23;;
41687;SDS011;27371;42.686;23.362;2024-02-21T09:27:49;12.38;;;9.45;;
41687;SDS011;27371;42.686;23.362;2024-02-21T09:30:17;13.88;;;10.15;;
41687;SDS011;27371;42.686;23.362;2024-02-21T09:32:42;11.73;;;10.13;;
41687;SDS011;27371;42.686;23.362;2024-02-21T09:35:08;11.88;;;10.25;;
41687;SDS011;27371;42.686;23.362;2024-02-21T09:37:33;14.35;;;10.23;;
41687;SDS011;27371;42.686;23.362;2024-02-21T09:39:59;11.35;;;10.07;;
41687;SDS011;27371;42.686;23.362;2024-02-21T09:42:27;11.98;;;10.32;;
41687;SDS011;27371;42.686;23.362;2024-02-21T09:45:07;13.52;;;10.25;;
41687;SDS011;27371;42.686;23.362;2024-02-21T09:50:40;11.57;;;9.73;;
41687;SDS011;27371;42.686;23.362;2024-02-21T09:53:06;13.88;;;10.25;;
41687;SDS011;27371;42.686;23.362;2024-02-21T09:55:33;11.85;;;10.23;;
41687;SDS011;27371;42.686;23.362;2024-02-21T09:58:01;13.13;;;10.13;;
41687;SDS011;27371;42.686;23.362;2024-02-21T10:00:27;13.63;;;11.88;;
41687;SDS011;27371;42.686;23.362;2024-02-21T10:02:53;14.43;;;10.05;;
41687;SDS011;27371;42.686;23.362;2024-02-21T10:05:19;12.98;;;10.90;;
41687;SDS011;27371;42.686;23.362;2024-02-21T10:07:45;12.50;;;10.43;;
41687;SDS011;27371;42.686;23.362;2024-02-21T10:10:10;12.43;;;9.85;;
41687;SDS011;27371;42.686;23.362;2024-02-21T10:12:36;14.30;;;9.25;;
41687;SDS011;27371;42.686;23.362;2024-02-21T10:15:03;9.35;;;8.43;;
41687;SDS011;27371;42.686;23.362;2024-02-21T10:17:29;10.85;;;8.88;;
41687;SDS011;27371;42.686;23.362;2024-02-21T10:19:55;10.85;;;9.02;;
41687;SDS011;27371;42.686;23.362;2024-02-21T10:22:20;14.43;;;9.60;;
41687;SDS011;27371;42.686;23.362;2024-02-21T10:24:46;10.90;;;8.70;;
41687;SDS011;27371;42.686;23.362;2024-02-21T10:27:12;10.52;;;8.50;;
41687;SDS011;27371;42.686;23.362;2024-02-21T10:29:37;9.73;;;7.82;;
41687;SDS011;27371;42.686;23.362;2024-02-21T10:34:37;13.23;;;8.07;;
41687;SDS011;27371;42.686;23.362;2024-02-21T10:37:04;9.90;;;7.50;;
41687;SDS011;27371;42.686;23.362;2024-02-21T10:39:33;8.60;;;6.88;;
41687;SDS011;27371;42.686;23.362;2024-02-21T10:42:01;15.57;;;8.25;;
41687;SDS011;27371;42.686;23.362;2024-02-21T10:44:31;8.73;;;7.50;;
41687;SDS011;27371;42.686;23.362;2024-02-21T10:46:58;13.30;;;7.75;;
41687;SDS011;27371;42.686;23.362;2024-02-21T10:49:24;8.88;;;7.00;;
41687;SDS011;27371;42.686;23.362;2024-02-21T10:51:54;9.52;;;7.28;;
41687;SDS011;27371;42.686;23.362;2024-02-21T10:57:32;8.35;;;6.82;;
41687;SDS011;27371;42.686;23.362;2024-02-21T10:59:59;9.13;;;6.97;;
41687;SDS011;27371;42.686;23.362;2024-02-21T11:02:26;7.63;;;6.55;;
41687;SDS011;27371;42.686;23.362;2024-02-21T11:04:55;7.95;;;7.15;;
41687;SDS011;27371;42.686;23.362;2024-02-21T11:07:21;7.03;;;5.95;;
41687;SDS011;27371;42.686;23.362;2024-02-21T11:09:53;7.18;;;5.60;;
41687;SDS011;27371;42.686;23.362;2024-02-21T11:12:22;8.70;;;6.10;;
41687;SDS011;27371;42.686;23.362;2024-02-21T11:14:52;7.53;;;5.18;;
41687;SDS011;27371;42.686;23.362;2024-02-21T11:17:18;7.57;;;5.30;;
41687;SDS011;27371;42.686;23.362;2024-02-21T11:19:51;4.88;;;4.07;;
41687;SDS011;27371;42.686;23.362;2024-02-21T11:22:17;7.07;;;3.92;;
41687;SDS011;27371;42.686;23.362;2024-02-21T11:24:44;6.40;;;3.42;;
41687;SDS011;27371;42.686;23.362;2024-02-21T11:27:14;5.63;;;3.83;;
41687;SDS011;27371;42.686;23.362;2024-02-21T11:29:44;7.45;;;5.38;;
41687;SDS011;27371;42.686;23.362;2024-02-21T11:32:11;4.72;;;3.65;;
41687;SDS011;27371;42.686;23.362;2024-02-21T11:34:40;5.95;;;3.63;;
41687;SDS011;27371;42.686;23.362;2024-02-21T11:37:15;5.70;;;3.80;;
41687;SDS011;27371;42.686;23.362;2024-02-21T11:39:41;3.70;;;3.35;;
41687;SDS011;27371;42.686;23.362;2024-02-21T11:42:07;4.15;;;3.00;;
41687;SDS011;27371;42.686;23.362;2024-02-21T11:44:34;4.30;;;3.28;;
41687;SDS011;27371;42.686;23.362;2024-02-21T11:47:03;7.38;;;3.83;;
41687;SDS011;27371;42.686;23.362;2024-02-21T11:49:29;5.35;;;3.65;;
41687;SDS011;27371;42.686;23.362;2024-02-21T11:52:01;5.93;;;3.60;;
41687;SDS011;27371;42.686;23.362;2024-02-21T11:54:29;3.75;;;3.25;;
41687;SDS011;27371;42.686;23.362;2024-02-21T11:56:55;4.63;;;3.47;;
41687;SDS011;27371;42.686;23.362;2024-02-21T11:59:21;5.68;;;3.60;;
41687;SDS011;27371;42.686;23.362;2024-02-21T12:01:47;4.00;;;3.47;;
41687;SDS011;27371;42.686;23.362;2024-02-21T12:04:13;4.47;;;3.50;;
41687;SDS011;27371;42.686;23.362;2024-02-21T12:06:39;5.68;;;3.65;;
41687;SDS011;27371;42.686;23.362;2024-02-21T12:09:07;6.32;;;3.60;;
41687;SDS011;27371;42.686;23.362;2024-02-21T12:11:36;5.88;;;3.38;;
41687;SDS011;27371;42.686;23.362;2024-02-21T12:14:01;4.50;;;3.92;;
41687;SDS011;27371;42.686;23.362;2024-02-21T12:16:29;7.72;;;3.85;;
41687;SDS011;27371;42.686;23.362;2024-02-21T12:18:56;5.55;;;4.20;;
41687;SDS011;27371;42.686;23.362;2024-02-21T12:21:25;5.53;;;4.90;;
41687;SDS011;27371;42.686;23.362;2024-02-21T12:23:54;4.82;;;3.97;;
41687;SDS011;27371;42.686;23.362;2024-02-21T12:26:21;6.15;;;4.38;;
41687;SDS011;27371;42.686;23.362;2024-02-21T12:28:47;6.20;;;4.05;;
41687;SDS011;27371;42.686;23.362;2024-02-21T12:31:12;6.68;;;3.85;;
41687;SDS011;27371;42.686;23.362;2024-02-21T12:33:38;5.38;;;4.20;;
41687;SDS011;27371;42.686;23.362;2024-02-21T12:36:04;5.85;;;4.25;;
41687;SDS011;27371;42.686;23.362;2024-02-21T12:38:30;6.05;;;3.72;;
41687;SDS011;27371;42.686;23.362;2024-02-21T12:40:55;7.60;;;4.30;;
41687;SDS011;27371;42.686;23.362;2024-02-21T12:43:25;7.35;;;4.43;;
41687;SDS011;27371;42.686;23.362;2024-02-21T12:45:52;5.65;;;4.03;;
41687;SDS011;27371;42.686;23.362;2024-02-21T12:48:18;7.18;;;4.35;;
41687;SDS011;27371;42.686;23.362;2024-02-21T12:50:52;9.00;;;4.97;;
41687;SDS011;27371;42.686;23.362;2024-02-21T12:53:18;7.22;;;4.63;;
41687;SDS011;27371;42.686;23.362;2024-02-21T12:55:46;9.77;;;5.07;;
41687;SDS011;27371;42.686;23.362;2024-02-21T12:58:13;8.95;;;5.38;;
41687;SDS011;27371;42.686;23.362;2024-02-21T13:00:39;8.80;;;6.55;;
41687;SDS011;27371;42.686;23.362;2024-02-21T13:03:05;8.73;;;5.70;;
41687;SDS011;27371;42.686;23.362;2024-02-21T13:05:31;8.38;;;5.82;;
41687;SDS011;27371;42.686;23.362;2024-02-21T13:07:57;10.18;;;6.63;;
41687;SDS011;27371;42.686;23.362;2024-02-21T13:10:23;8.60;;;6.10;;
41687;SDS011;27371;42.686;23.362;2024-02-21T13:12:49;6.95;;;5.63;;
41687;SDS011;27371;42.686;23.362;2024-02-21T13:15:15;8.70;;;5.93;;
41687;SDS011;27371;42.686;23.362;2024-02-21T13:17:43;6.97;;;5.50;;
41687;SDS011;27371;42.686;23.362;2024-02-21T13:20:11;7.63;;;5.65;;
41687;SDS011;27371;42.686;23.362;2024-02-21T13:22:37;7.43;;;5.72;;
41687;SDS011;27371;42.686;23.362;2024-02-21T13:25:05;8.55;;;6.47;;
41687;SDS011;27371;42.686;23.362;2024-02-21T13:27:35;8.23;;;6.63;;
41687;SDS011;27371;42.686;23.362;2024-02-21T13:30:01;7.63;;;5.03;;
41687;SDS011;27371;42.686;23.362;2024-02-21T13:32:31;7.63;;;6.10;;
41687;SDS011;27371;42.686;23.362;2024-02-21T13:34:57;7.72;;;5.70;;
41687;SDS011;27371;42.686;23.362;2024-02-21T13:37:26;8.15;;;4.60;;
41687;SDS011;27371;42.686;23.362;2024-02-21T13:39:52;7.32;;;4.55;;
41687;SDS011;27371;42.686;23.362;2024-02-21T13:42:17;6.35;;;4.43;;
41687;SDS011;27371;42.686;23.362;2024-02-21T13:44:44;8.27;;;4.75;;
41687;SDS011;27371;42.686;23.362;2024-02-21T13:47:09;6.68;;;4.18;;
41687;SDS011;27371;42.686;23.362;2024-02-21T13:49:38;6.68;;;4.45;;
41687;SDS011;27371;42.686;23.362;2024-02-21T13:52:06;7.32;;;5.30;;
41687;SDS011;27371;42.686;23.362;2024-02-21T13:54:35;7.90;;;5.30;;
41687;SDS011;27371;42.686;23.362;2024-02-21T13:57:00;6.35;;;5.00;;
41687;SDS011;27371;42.686;23.362;2024-02-21T13:59:27;8.52;;;5.53;;
41687;SDS011;27371;42.686;23.362;2024-02-21T14:01:53;7.60;;;5.70;;
41687;SDS011;27371;42.686;23.362;2024-02-21T14:04:19;8.00;;;5.32;;
41687;SDS011;27371;42.686;23.362;2024-02-21T14:06:45;7.82;;;5.63;;
41687;SDS011;27371;42.686;23.362;2024-02-21T14:09:12;7.47;;;5.70;;
41687;SDS011;27371;42.686;23.362;2024-02-21T14:11:38;10.40;;;6.03;;
41687;SDS011;27371;42.686;23.362;2024-02-21T14:14:05;6.78;;;4.63;;
41687;SDS011;27371;42.686;23.362;2024-02-21T14:16:30;6.75;;;5.30;;
41687;SDS011;27371;42.686;23.362;2024-02-21T14:18:57;8.80;;;5.00;;
41687;SDS011;27371;42.686;23.362;2024-02-21T14:21:22;7.10;;;4.30;;
41687;SDS011;27371;42.686;23.362;2024-02-21T14:23:48;6.35;;;4.70;;
41687;SDS011;27371;42.686;23.362;2024-02-21T14:26:14;7.60;;;4.72;;
41687;SDS011;27371;42.686;23.362;2024-02-21T14:28:39;7.97;;;5.10;;